Time;durP1;ratioP1;P1;durP2;ratioP2;P2;SDS_P1;SDS_P2;PMS_P1;PMS_P2;Temp;Humidity;BMP_temperature;BMP_pressure;BME280_temperature;BME280_humidity;BME280_pressure;Samples;Min_cycle;Max_cycle;Signal;HPM_P1;HPM_P2
2024/02/11 00:00:50;;;;;;;;;;;;;;;16.28;47.58;100068.50;4900874;29;1432;-47
2024/02/11 00:03:16;;;;;;;;;;;;;;;16.01;46.84;100068.97;4903551;29;1406;-46
2024/02/11 00:05:44;;;;;;;;;;;;;;;15.73;46.51;100077.28;4894353;29;1094;-45
2024/02/11 00:08:10;;;;;;;;;;;;;;;15.67;46.14;100078.66;4899515;29;1113;-46
2024/02/11 00:10:36;;;;;;;;;;;;;;;16.87;46.90;100085.81;4900998;29;1202;-46
2024/02/11 00:13:01;;;;;;;;;;;;;;;16.26;47.48;100082.88;4904012;29;1038;-47
2024/02/11 00:15:27;;;;;;;;;;;;;;;15.91;47.11;100101.50;4903567;29;1990;-48
2024/02/11 00:17:53;;;;;;;;;;;;;;;15.67;46.63;100097.22;4901117;29;1331;-47
2024/02/11 00:20:19;;;;;;;;;;;;;;;15.58;46.19;100097.09;4901861;29;915;-49
2024/02/11 00:22:44;;;;;;;;;;;;;;;16.06;47.19;100092.47;4898945;29;1111;-46
2024/02/11 00:25:10;;;;;;;;;;;;;;;17.02;46.42;100092.47;4903259;29;1069;-49
2024/02/11 00:27:42;;;;;;;;;;;;;;;16.03;47.73;100090.91;4898013;29;1125;-49
2024/02/11 00:30:08;;;;;;;;;;;;;;;15.86;47.01;100092.22;4903231;29;1241;-47
2024/02/11 00:32:34;;;;;;;;;;;;;;;16.17;47.77;100092.41;4902431;29;1432;-49
2024/02/11 00:34:59;;;;;;;;;;;;;;;17.53;45.94;100086.44;4903317;29;1186;-48
2024/02/11 00:37:29;;;;;;;;;;;;;;;16.26;47.63;100080.22;4889178;29;2033;-49
2024/02/11 00:39:57;;;;;;;;;;;;;;;15.94;47.09;100073.03;4892833;29;1061;-46
2024/02/11 00:42:27;;;;;;;;;;;;;;;15.69;46.92;100075.03;4902780;29;1089;-44
2024/02/11 00:44:53;;;;;;;;;;;;;;;15.98;47.03;100085.09;4903140;29;1154;-46
2024/02/11 00:47:18;;;;;;;;;;;;;;;17.32;46.09;100081.16;4892214;29;1150;-47
2024/02/11 00:49:44;;;;;;;;;;;;;;;16.18;47.41;100094.13;4884116;29;1161;-48
2024/02/11 00:52:10;;;;;;;;;;;;;;;15.86;47.11;100089.59;4884355;29;1062;-49
2024/02/11 00:54:37;;;;;;;;;;;;;;;15.74;46.51;100080.81;4893742;29;956;-56
2024/02/11 00:57:03;;;;;;;;;;;;;;;15.82;47.05;100077.53;4890178;29;1973;-56
2024/02/11 00:59:29;;;;;;;;;;;;;;;17.19;46.21;100076.06;4894141;29;1054;-57
2024/02/11 01:01:54;;;;;;;;;;;;;;;16.06;47.75;100081.84;4899362;29;1201;-58
2024/02/11 01:04:20;;;;;;;;;;;;;;;16.02;48.32;100079.44;4903548;29;1105;-56
2024/02/11 01:06:45;;;;;;;;;;;;;;;17.62;45.63;100072.31;4902277;29;1162;-57
2024/02/11 01:09:11;;;;;;;;;;;;;;;16.33;47.76;100072.59;4902842;29;1042;-59
2024/02/11 01:11:36;;;;;;;;;;;;;;;15.92;47.32;100062.56;4899352;29;1153;-58
2024/02/11 01:14:02;;;;;;;;;;;;;;;15.80;46.59;100072.34;4893235;29;1210;-58
2024/02/11 01:16:28;;;;;;;;;;;;;;;17.44;46.37;100068.63;4902454;29;1972;-58
2024/02/11 01:18:54;;;;;;;;;;;;;;;16.24;47.53;100072.38;4902557;29;1093;-57
2024/02/11 01:21:20;;;;;;;;;;;;;;;15.92;47.24;100065.22;4902151;29;1144;-57
2024/02/11 01:23:47;;;;;;;;;;;;;;;16.35;47.99;100071.47;4893371;29;1031;-56
2024/02/11 01:26:12;;;;;;;;;;;;;;;17.06;46.45;100068.28;4899940;29;1130;-58
2024/02/11 01:28:39;;;;;;;;;;;;;;;16.19;47.50;100065.75;4902306;29;1134;-56
2024/02/11 01:31:06;;;;;;;;;;;;;;;15.87;47.12;100060.28;4898737;29;1401;-56
2024/02/11 01:33:32;;;;;;;;;;;;;;;15.70;47.21;100051.03;4883714;29;1090;-56
2024/02/11 01:35:58;;;;;;;;;;;;;;;17.50;45.78;100047.66;4893153;29;1969;-56
2024/02/11 01:38:23;;;;;;;;;;;;;;;16.25;47.72;100042.22;4896575;29;1076;-51
2024/02/11 01:40:50;;;;;;;;;;;;;;;15.98;46.87;100046.16;4901212;29;1107;-50
2024/02/11 01:43:15;;;;;;;;;;;;;;;16.35;47.72;100041.47;4901861;29;1309;-58
2024/02/11 01:45:41;;;;;;;;;;;;;;;17.35;45.88;100027.75;4898173;29;1113;-55
2024/02/11 01:48:08;;;;;;;;;;;;;;;16.37;47.38;100019.09;4893105;29;848;-59
2024/02/11 01:50:35;;;;;;;;;;;;;;;15.95;46.82;100019.03;4905236;29;1150;-57
2024/02/11 01:53:00;;;;;;;;;;;;;;;15.71;46.86;100015.59;4894886;29;1364;-57
2024/02/11 01:55:26;;;;;;;;;;;;;;;17.53;46.44;100027.94;4913258;29;1903;-56
2024/02/11 01:57:54;;;;;;;;;;;;;;;16.46;47.12;100025.47;4892748;29;1431;-57
2024/02/11 02:00:19;;;;;;;;;;;;;;;15.94;47.20;100023.50;4898353;29;1114;-56
2024/02/11 02:02:47;;;;;;;;;;;;;;;15.76;46.78;100017.88;4895722;29;1669;-58
2024/02/11 02:05:14;;;;;;;;;;;;;;;17.54;46.27;100023.44;4899656;29;1297;-59
2024/02/11 02:07:39;;;;;;;;;;;;;;;16.50;47.26;100026.03;4896331;29;1236;-54
2024/02/11 02:10:05;;;;;;;;;;;;;;;16.02;47.18;100034.34;4892523;29;1146;-57
2024/02/11 02:12:31;;;;;;;;;;;;;;;15.82;46.49;100037.75;4889550;29;1078;-56
2024/02/11 02:14:56;;;;;;;;;;;;;;;15.73;46.24;100029.56;4891817;29;1159;-57
2024/02/11 02:17:22;;;;;;;;;;;;;;;17.27;46.74;100044.34;4901306;29;1980;-58
2024/02/11 02:19:47;;;;;;;;;;;;;;;16.40;47.49;100028.63;4900722;29;1158;-56
2024/02/11 02:22:13;;;;;;;;;;;;;;;15.99;47.30;100028.44;4898826;29;1133;-56
2024/02/11 02:24:38;;;;;;;;;;;;;;;15.67;46.89;100028.28;4897163;29;872;-57
2024/02/11 02:27:06;;;;;;;;;;;;;;;15.65;46.09;100032.84;4895017;29;1109;-55
2024/02/11 02:29:33;;;;;;;;;;;;;;;16.30;47.27;100035.69;4882978;29;1183;-57
2024/02/11 02:31:58;;;;;;;;;;;;;;;17.23;46.27;100040.31;4883095;29;1070;-56
2024/02/11 02:34:24;;;;;;;;;;;;;;;16.15;47.76;100057.19;4883048;29;1079;-52
2024/02/11 02:36:50;;;;;;;;;;;;;;;15.89;47.36;100057.50;4885045;29;1931;-56
2024/02/11 02:39:16;;;;;;;;;;;;;;;15.73;46.55;100061.38;4901273;29;1158;-58
2024/02/11 02:41:41;;;;;;;;;;;;;;;17.08;47.06;100061.03;4889056;29;1053;-56
2024/02/11 02:44:07;;;;;;;;;;;;;;;16.88;46.92;100055.63;4901062;29;1113;-56
2024/02/11 02:46:32;;;;;;;;;;;;;;;16.12;47.55;100062.75;4897696;29;1126;-56
2024/02/11 02:48:58;;;;;;;;;;;;;;;15.89;46.93;100068.97;4882214;29;1205;-56
2024/02/11 02:51:23;;;;;;;;;;;;;;;17.70;45.91;100071.63;4885157;29;1250;-57
2024/02/11 02:53:49;;;;;;;;;;;;;;;16.45;47.44;100060.09;4901455;29;1126;-56
2024/02/11 02:56:17;;;;;;;;;;;;;;;16.03;47.29;100067.03;4900813;29;1978;-58
2024/02/11 02:58:43;;;;;;;;;;;;;;;15.81;46.77;100065.25;4884836;29;1033;-57
2024/02/11 03:01:09;;;;;;;;;;;;;;;15.71;46.02;100051.88;4886466;29;919;-57
2024/02/11 03:03:34;;;;;;;;;;;;;;;16.18;47.15;100042.84;4882613;29;1122;-58
2024/02/11 03:06:01;;;;;;;;;;;;;;;17.80;45.68;100046.88;4881770;29;1027;-57
2024/02/11 03:08:26;;;;;;;;;;;;;;;16.37;47.37;100068.69;4885559;29;1074;-58
2024/02/11 03:10:52;;;;;;;;;;;;;;;16.02;47.42;100066.19;4891859;29;1078;-58
2024/02/11 03:13:17;;;;;;;;;;;;;;;17.37;46.73;100061.19;4885958;29;1070;-57
2024/02/11 03:15:43;;;;;;;;;;;;;;;16.60;47.38;100066.78;4901112;29;1982;-57
2024/02/11 03:18:09;;;;;;;;;;;;;;;16.05;47.45;100074.88;4900468;29;1025;-58
2024/02/11 03:20:35;;;;;;;;;;;;;;;15.87;46.61;100062.94;4900205;29;1089;-56
2024/02/11 03:23:00;;;;;;;;;;;;;;;15.72;45.97;100050.91;4888298;29;1039;-57
2024/02/11 03:25:26;;;;;;;;;;;;;;;15.66;45.88;100041.66;4895492;29;918;-57
2024/02/11 03:27:54;;;;;;;;;;;;;;;16.59;47.15;100030.56;4900224;29;1070;-57
2024/02/11 03:30:21;;;;;;;;;;;;;;;17.15;46.24;100034.81;4902347;29;1386;-57
2024/02/11 03:32:50;;;;;;;;;;;;;;;16.09;47.36;100039.13;4888522;29;1094;-56
2024/02/11 03:35:16;;;;;;;;;;;;;;;15.91;46.76;100050.28;4885561;29;1918;-56
2024/02/11 03:37:42;;;;;;;;;;;;;;;15.93;47.30;100051.00;4901999;29;1181;-56
2024/02/11 03:40:12;;;;;;;;;;;;;;;17.84;45.96;100053.59;4904634;29;1089;-56
2024/02/11 03:42:38;;;;;;;;;;;;;;;16.49;47.31;100048.25;4903885;29;1042;-58
2024/02/11 03:45:15;;;;;;;;;;;;;;;16.03;47.52;100064.38;4905032;29;1077;-55
2024/02/11 03:47:40;;;;;;;;;;;;;;;15.82;46.89;100043.91;4897831;29;1360;-56
2024/02/11 03:50:07;;;;;;;;;;;;;;;15.75;45.94;100040.91;4894095;29;1014;-55
2024/02/11 03:52:35;;;;;;;;;;;;;;;15.64;45.70;100057.69;4899934;29;1356;-56
2024/02/11 03:55:01;;;;;;;;;;;;;;;17.38;46.44;100054.06;4891916;29;1062;-58
2024/02/11 03:57:26;;;;;;;;;;;;;;;16.56;47.42;100065.34;4891282;29;1907;-56
2024/02/11 03:59:52;;;;;;;;;;;;;;;15.92;47.73;100049.28;4904088;29;1140;-58
2024/02/11 04:02:18;;;;;;;;;;;;;;;15.81;46.95;100047.53;4895185;29;1512;-56
2024/02/11 04:04:45;;;;;;;;;;;;;;;17.06;47.05;100029.28;4902141;29;939;-54
2024/02/11 04:07:11;;;;;;;;;;;;;;;16.80;47.03;100013.75;4898559;29;1022;-56
2024/02/11 04:09:39;;;;;;;;;;;;;;;16.09;47.68;100009.94;4884747;29;1073;-55
2024/02/11 04:12:08;;;;;;;;;;;;;;;15.85;47.00;100017.13;4901483;29;1147;-54
2024/02/11 04:14:33;;;;;;;;;;;;;;;16.71;47.68;100015.41;4896878;29;1034;-56
2024/02/11 04:16:59;;;;;;;;;;;;;;;17.05;46.60;100018.78;4890244;29;1985;-56
2024/02/11 04:19:25;;;;;;;;;;;;;;;16.22;47.51;100031.00;4903046;29;1037;-56
2024/02/11 04:21:51;;;;;;;;;;;;;;;15.90;47.36;100033.50;4905538;29;2529;-52
2024/02/11 04:24:17;;;;;;;;;;;;;;;17.22;46.49;100044.75;4910824;29;2043;-50
2024/02/11 04:26:42;;;;;;;;;;;;;;;16.28;47.32;100039.28;4897122;29;1836;-52
2024/02/11 04:29:12;;;;;;;;;;;;;;;16.01;47.75;100035.31;4884830;29;2120;-52
2024/02/11 04:31:41;;;;;;;;;;;;;;;16.89;46.81;100020.13;4892051;29;2191;-49
2024/02/11 04:34:08;;;;;;;;;;;;;;;16.19;47.55;100020.63;4900289;29;2024;-54
2024/02/11 04:36:36;;;;;;;;;;;;;;;15.91;47.18;100026.41;4898488;29;1907;-53
2024/02/11 04:39:08;;;;;;;;;;;;;;;15.70;46.35;100019.22;4902455;29;1057;-48
2024/02/11 04:41:37;;;;;;;;;;;;;;;15.67;45.60;100032.72;4901874;29;1146;-52
2024/02/11 04:44:05;;;;;;;;;;;;;;;17.11;46.75;100019.13;4906909;29;1150;-49
2024/02/11 04:46:34;;;;;;;;;;;;;;;16.49;47.43;100003.97;4902944;29;1090;-50
2024/02/11 04:48:59;;;;;;;;;;;;;;;16.01;47.45;100006.16;4895848;29;1129;-48
2024/02/11 04:51:30;;;;;;;;;;;;;;;15.77;47.00;100008.94;4884691;29;1122;-49
2024/02/11 04:53:59;;;;;;;;;;;;;;;17.32;46.79;99996.94;4897153;29;1141;-49
2024/02/11 04:56:28;;;;;;;;;;;;;;;16.64;47.29;100009.78;4902749;29;1904;-47
2024/02/11 04:58:54;;;;;;;;;;;;;;;16.10;47.67;100011.66;4898724;29;1514;-51
2024/02/11 05:01:23;;;;;;;;;;;;;;;15.92;46.91;100004.19;4902077;29;1117;-50
2024/02/11 05:03:49;;;;;;;;;;;;;;;15.73;46.52;100013.66;4890140;29;1087;-50
2024/02/11 05:06:18;;;;;;;;;;;;;;;15.59;46.08;100013.94;4884644;29;2024;-46
2024/02/11 05:08:47;;;;;;;;;;;;;;;15.52;46.03;100024.19;4896021;29;1046;-53
2024/02/11 05:11:12;;;;;;;;;;;;;;;17.34;46.70;100036.69;4890657;29;1119;-55
2024/02/11 05:13:38;;;;;;;;;;;;;;;16.57;47.40;100042.28;4892539;29;1061;-55
2024/02/11 05:16:05;;;;;;;;;;;;;;;17.06;46.95;100042.56;4895604;29;1970;-55
2024/02/11 05:18:36;;;;;;;;;;;;;;;17.41;45.69;100035.19;4896583;29;994;-50
2024/02/11 05:21:02;;;;;;;;;;;;;;;17.07;46.35;100033.63;4899004;29;1043;-53
2024/02/11 05:23:29;;;;;;;;;;;;;;;16.82;46.88;100037.53;4902513;29;1074;-50
2024/02/11 05:25:54;;;;;;;;;;;;;;;16.61;47.35;100049.88;4898026;29;1230;-51
2024/02/11 05:28:20;;;;;;;;;;;;;;;16.55;47.44;100052.22;4894088;29;1079;-54
2024/02/11 05:30:45;;;;;;;;;;;;;;;16.43;47.74;100056.72;4899063;29;1058;-51
2024/02/11 05:33:18;;;;;;;;;;;;;;;15.45;48.19;99924.94;4883175;29;1054;-45
2024/02/11 05:35:44;;;;;;;;;;;;;;;16.12;48.42;100042.38;4895136;29;2326;-51
2024/02/11 05:38:10;;;;;;;;;;;;;;;16.09;48.21;100049.75;4900316;29;1170;-47
2024/02/11 05:40:41;;;;;;;;;;;;;;;15.93;48.91;100055.44;4901824;29;1027;-49
2024/02/11 05:43:08;;;;;;;;;;;;;;;15.93;48.71;100063.41;4901364;29;1105;-49
2024/02/11 05:45:34;;;;;;;;;;;;;;;15.77;49.09;100068.13;4901766;29;1045;-48
2024/02/11 05:47:59;;;;;;;;;;;;;;;15.69;49.30;100057.31;4901159;29;1106;-46
2024/02/11 05:50:28;;;;;;;;;;;;;;;15.66;48.94;100060.22;4890584;29;1055;-46
2024/02/11 05:52:54;;;;;;;;;;;;;;;15.61;49.25;100060.59;4901094;29;1029;-50
2024/02/11 05:55:20;;;;;;;;;;;;;;;15.47;49.48;100056.38;4891377;29;1898;-46
2024/02/11 05:57:46;;;;;;;;;;;;;;;15.37;49.35;100058.91;4902106;29;1047;-46
2024/02/11 06:00:12;;;;;;;;;;;;;;;15.32;49.69;100068.16;4904548;29;1328;-51
2024/02/11 06:02:38;;;;;;;;;;;;;;;15.29;49.74;100067.47;4884289;29;840;-49
2024/02/11 06:05:06;;;;;;;;;;;;;;;15.82;48.92;100067.75;4894319;29;1186;-46
2024/02/11 06:07:33;;;;;;;;;;;;;;;17.13;45.73;100058.88;4901469;29;1141;-47
2024/02/11 06:09:58;;;;;;;;;;;;;;;16.58;46.84;100062.56;4895493;29;1138;-51
2024/02/11 06:12:24;;;;;;;;;;;;;;;16.01;48.24;100076.91;4899151;29;1065;-51
2024/02/11 06:14:49;;;;;;;;;;;;;;;15.77;48.79;100068.13;4892493;29;899;-49
2024/02/11 06:17:15;;;;;;;;;;;;;;;15.62;49.39;100074.66;4887029;29;1918;-48
2024/02/11 06:19:40;;;;;;;;;;;;;;;15.60;48.98;100063.38;4891086;29;1221;-49
2024/02/11 06:22:06;;;;;;;;;;;;;;;15.46;49.71;100072.41;4888504;29;1109;-49
2024/02/11 06:24:32;;;;;;;;;;;;;;;15.42;49.58;100069.13;4891044;29;1177;-50
2024/02/11 06:26:59;;;;;;;;;;;;;;;15.29;49.78;100066.63;4895173;29;865;-47
2024/02/11 06:29:27;;;;;;;;;;;;;;;16.66;46.78;100073.38;4890680;29;1469;-47
2024/02/11 06:31:53;;;;;;;;;;;;;;;17.04;45.78;100079.06;4901276;29;1229;-47
2024/02/11 06:34:18;;;;;;;;;;;;;;;16.17;47.78;100097.72;4888720;29;1274;-47
2024/02/11 06:36:45;;;;;;;;;;;;;;;15.94;48.28;100100.41;4889604;29;1914;-53
2024/02/11 06:39:11;;;;;;;;;;;;;;;15.69;48.78;100102.38;4886777;29;1034;-49
2024/02/11 06:41:37;;;;;;;;;;;;;;;15.58;48.96;100102.41;4894834;29;1360;-50
2024/02/11 06:44:04;;;;;;;;;;;;;;;15.47;49.38;100095.28;4889564;29;1163;-51
2024/02/11 06:46:29;;;;;;;;;;;;;;;15.39;49.32;100099.41;4898876;29;1285;-52
2024/02/11 06:48:55;;;;;;;;;;;;;;;15.32;49.92;100097.31;4896279;29;1137;-52
2024/02/11 06:51:21;;;;;;;;;;;;;;;16.74;46.48;100091.31;4898998;29;1019;-50
2024/02/11 06:53:46;;;;;;;;;;;;;;;17.04;45.79;100099.47;4897280;29;1117;-52
2024/02/11 06:56:12;;;;;;;;;;;;;;;16.22;47.64;100087.59;4883569;29;1910;-49
2024/02/11 06:58:37;;;;;;;;;;;;;;;15.93;48.56;100082.81;4893335;29;1130;-52
2024/02/11 07:01:08;;;;;;;;;;;;;;;15.74;49.15;100078.16;4894075;29;1479;-50
2024/02/11 07:03:37;;;;;;;;;;;;;;;15.56;49.53;100083.97;4889633;29;984;-56
2024/02/11 07:06:05;;;;;;;;;;;;;;;15.51;49.19;100086.13;4916709;29;1218;-54
2024/02/11 07:08:32;;;;;;;;;;;;;;;15.37;49.62;100073.97;4906425;29;1139;-56
2024/02/11 07:10:58;;;;;;;;;;;;;;;15.27;50.12;100066.75;4896237;29;1058;-50
2024/02/11 07:13:23;;;;;;;;;;;;;;;16.72;46.99;100066.69;4906090;29;1331;-50
2024/02/11 07:15:49;;;;;;;;;;;;;;;17.13;45.57;100072.16;4894680;29;1995;-54
2024/02/11 07:18:16;;;;;;;;;;;;;;;16.32;47.19;100079.69;4900691;29;1101;-53
2024/02/11 07:20:42;;;;;;;;;;;;;;;15.98;48.27;100077.13;4888475;29;1241;-49
2024/02/11 07:23:07;;;;;;;;;;;;;;;15.71;49.10;100075.75;4902736;29;1115;-48
2024/02/11 07:25:33;;;;;;;;;;;;;;;15.59;49.13;100072.25;4900209;29;1244;-48
2024/02/11 07:27:58;;;;;;;;;;;;;;;15.48;49.40;100071.28;4906477;29;1105;-49
2024/02/11 07:30:24;;;;;;;;;;;;;;;15.41;49.72;100075.41;4905654;29;1193;-50
2024/02/11 07:32:50;;;;;;;;;;;;;;;15.76;49.50;100077.06;4906824;29;1247;-50
2024/02/11 07:35:15;;;;;;;;;;;;;;;17.13;45.99;100075.63;4906171;29;1126;-48
2024/02/11 07:37:41;;;;;;;;;;;;;;;16.78;46.34;100076.81;4892924;29;1976;-51
2024/02/11 07:40:11;;;;;;;;;;;;;;;16.14;47.94;100082.06;4889243;29;1101;-50
2024/02/11 07:42:37;;;;;;;;;;;;;;;15.88;48.74;100082.34;4894806;29;1121;-49
2024/02/11 07:45:03;;;;;;;;;;;;;;;15.74;49.18;100097.56;4896180;29;1038;-47
2024/02/11 07:47:30;;;;;;;;;;;;;;;15.55;49.29;100092.88;4894598;29;1039;-46
2024/02/11 07:49:56;;;;;;;;;;;;;;;15.49;49.38;100094.22;4899122;29;1174;-47
2024/02/11 07:52:22;;;;;;;;;;;;;;;15.33;50.18;100093.72;4905345;29;1162;-48
2024/02/11 07:54:48;;;;;;;;;;;;;;;15.86;49.29;100100.19;4898792;29;1137;-54
2024/02/11 07:57:15;;;;;;;;;;;;;;;17.19;45.90;100100.00;4904727;29;1912;-54
2024/02/11 07:59:41;;;;;;;;;;;;;;;16.50;47.21;100097.72;4905952;29;1339;-58
2024/02/11 08:02:07;;;;;;;;;;;;;;;16.03;48.33;100105.00;4906182;29;1077;-55
2024/02/11 08:04:33;;;;;;;;;;;;;;;15.80;49.08;100106.81;4890585;29;1165;-51
2024/02/11 08:06:59;;;;;;;;;;;;;;;15.66;49.48;100114.06;4899280;29;1039;-51
2024/02/11 08:09:24;;;;;;;;;;;;;;;15.54;49.50;100125.66;4906494;29;1146;-52
2024/02/11 08:11:50;;;;;;;;;;;;;;;15.47;49.40;100114.69;4897359;29;1129;-51
2024/02/11 08:14:17;;;;;;;;;;;;;;;15.35;50.04;100123.63;4901807;29;1058;-50
2024/02/11 08:16:42;;;;;;;;;;;;;;;16.28;48.10;100118.09;4889631;29;1911;-51
2024/02/11 08:19:10;;;;;;;;;;;;;;;17.37;45.26;100114.38;4885025;29;1102;-55
2024/02/11 08:21:36;;;;;;;;;;;;;;;16.48;47.34;100136.84;4899931;29;1143;-52
2024/02/11 08:24:02;;;;;;;;;;;;;;;16.06;48.18;100140.22;4894509;29;1070;-50
2024/02/11 08:26:28;;;;;;;;;;;;;;;15.74;49.33;100141.78;4897373;29;1149;-48
2024/02/11 08:28:59;;;;;;;;;;;;;;;15.64;49.49;100145.19;4902686;29;1057;-45
2024/02/11 08:31:25;;;;;;;;;;;;;;;15.54;49.58;100142.41;4884736;29;1122;-45
2024/02/11 08:33:51;;;;;;;;;;;;;;;15.45;49.92;100139.63;4886186;29;1133;-46
2024/02/11 08:36:16;;;;;;;;;;;;;;;15.37;49.78;100129.63;4903747;29;1987;-47
2024/02/11 08:38:42;;;;;;;;;;;;;;;16.47;47.63;100145.75;4896873;29;1105;-55
2024/02/11 08:41:07;;;;;;;;;;;;;;;17.32;45.40;100134.34;4891938;29;1007;-55
2024/02/11 08:43:33;;;;;;;;;;;;;;;16.43;47.39;100131.91;4903410;29;1141;-54
2024/02/11 08:46:03;;;;;;;;;;;;;;;15.97;48.58;100133.78;4903410;29;1166;-55
2024/02/11 08:48:30;;;;;;;;;;;;;;;15.84;49.11;100136.59;4902754;29;1755;-55
2024/02/11 08:50:57;;;;;;;;;;;;;;;15.61;49.67;100132.16;4895073;29;1011;-54
2024/02/11 08:53:22;;;;;;;;;;;;;;;15.52;49.77;100135.53;4898255;29;1059;-49
2024/02/11 08:55:48;;;;;;;;;;;;;;;15.43;49.93;100129.97;4902947;29;1908;-49
2024/02/11 08:58:17;;;;;;;;;;;;;;;15.37;50.00;100138.41;4902900;29;1165;-54
2024/02/11 09:00:42;;;;;;;;;;;;;;;16.31;48.27;100140.88;4902832;29;1328;-49
2024/02/11 09:03:08;;;;;;;;;;;;;;;17.34;45.74;100151.00;4894966;29;1272;-50
2024/02/11 09:05:34;;;;;;;;;;;;;;;16.47;47.54;100130.69;4892690;29;1070;-49
2024/02/11 09:07:59;;;;;;;;;;;;;;;16.03;48.68;100139.50;4900271;29;1639;-51
2024/02/11 09:10:25;;;;;;;;;;;;;;;15.76;49.36;100142.53;4894002;29;1339;-51
2024/02/11 09:12:50;;;;;;;;;;;;;;;15.66;49.74;100134.44;4902533;29;1089;-52
2024/02/11 09:15:16;;;;;;;;;;;;;;;15.50;49.96;100137.44;4893378;29;1166;-53
2024/02/11 09:17:43;;;;;;;;;;;;;;;15.46;49.73;100136.88;4914254;29;1985;-53
2024/02/11 09:20:12;;;;;;;;;;;;;;;15.31;50.16;100136.25;4892963;29;1046;-54
2024/02/11 09:22:39;;;;;;;;;;;;;;;16.39;48.26;100133.13;4896533;29;1178;-51
2024/02/11 09:25:06;;;;;;;;;;;;;;;17.38;45.79;100133.81;4894351;29;1131;-48
2024/02/11 09:27:32;;;;;;;;;;;;;;;16.52;47.56;100132.94;4897331;29;1078;-51
2024/02/11 09:29:57;;;;;;;;;;;;;;;16.05;48.85;100135.88;4891536;29;1090;-51
2024/02/11 09:32:24;;;;;;;;;;;;;;;15.85;49.37;100119.75;4883750;29;1034;-48
2024/02/11 09:34:50;;;;;;;;;;;;;;;15.67;49.72;100114.91;4883648;29;1449;-48
2024/02/11 09:37:15;;;;;;;;;;;;;;;15.57;49.98;100120.09;4886056;29;1919;-47
2024/02/11 09:39:42;;;;;;;;;;;;;;;15.42;50.37;100117.69;4899067;29;852;-49
2024/02/11 09:42:17;;;;;;;;;;;;;;;15.40;50.16;100113.47;4889406;29;1169;-49
2024/02/11 09:44:43;;;;;;;;;;;;;;;16.83;47.30;100106.47;4892516;29;1035;-49
2024/02/11 09:47:09;;;;;;;;;;;;;;;17.22;45.87;100105.91;4897824;29;1261;-50
2024/02/11 09:49:35;;;;;;;;;;;;;;;16.38;47.93;100116.34;4883135;29;1228;-48
2024/02/11 09:52:01;;;;;;;;;;;;;;;16.03;48.77;100118.25;4892747;29;1158;-54
2024/02/11 09:54:27;;;;;;;;;;;;;;;15.83;49.46;100121.66;4891705;29;1090;-50
2024/02/11 09:56:52;;;;;;;;;;;;;;;15.72;49.74;100123.34;4914712;29;1910;-49
2024/02/11 09:59:18;;;;;;;;;;;;;;;15.55;49.90;100122.88;4882527;29;1103;-55
2024/02/11 10:01:43;;;;;;;;;;;;;;;15.46;50.04;100122.75;4884791;29;1062;-47
2024/02/11 10:04:10;;;;;;;;;;;;;;;16.68;47.71;100118.41;4889985;29;914;-49
2024/02/11 10:06:42;;;;;;;;;;;;;;;17.04;46.50;100116.25;4885578;29;1304;-50
2024/02/11 10:09:12;;;;;;;;;;;;;;;16.28;48.30;100105.66;4901675;29;1262;-53
2024/02/11 10:11:38;;;;;;;;;;;;;;;15.91;48.97;100108.63;4901581;29;1178;-48
2024/02/11 10:14:08;;;;;;;;;;;;;;;15.81;49.53;100111.19;4901301;29;1146;-52
2024/02/11 10:16:34;;;;;;;;;;;;;;;15.59;49.70;100112.03;4891271;29;1910;-49
2024/02/11 10:19:00;;;;;;;;;;;;;;;15.51;50.08;100107.34;4900248;29;1106;-50
2024/02/11 10:21:26;;;;;;;;;;;;;;;15.44;50.28;100106.97;4900664;29;1179;-50
2024/02/11 10:23:51;;;;;;;;;;;;;;;15.62;50.31;100107.34;4901881;29;1375;-50
2024/02/11 10:26:17;;;;;;;;;;;;;;;17.04;46.75;100102.13;4900792;29;1513;-49
2024/02/11 10:28:43;;;;;;;;;;;;;;;16.94;46.66;100102.06;4900328;29;1085;-46
2024/02/11 10:31:08;;;;;;;;;;;;;;;16.24;48.36;100088.31;4900918;29;1209;-50
2024/02/11 10:33:34;;;;;;;;;;;;;;;15.92;49.21;100086.44;4889561;29;1134;-49
2024/02/11 10:36:03;;;;;;;;;;;;;;;15.76;49.24;100074.41;4900694;29;1980;-50
2024/02/11 10:38:32;;;;;;;;;;;;;;;15.64;49.92;100075.38;4900574;29;1139;-51
2024/02/11 10:40:58;;;;;;;;;;;;;;;15.51;49.95;100067.59;4881592;29;939;-52
2024/02/11 10:43:25;;;;;;;;;;;;;;;15.40;50.06;100057.81;4895297;29;1127;-51
2024/02/11 10:45:51;;;;;;;;;;;;;;;16.00;49.54;100064.59;4901073;29;1069;-50
2024/02/11 10:48:19;;;;;;;;;;;;;;;17.24;46.07;100058.78;4900262;29;1201;-48
2024/02/11 10:51:03;;;;;;;;;;;;;;;16.63;47.29;100057.72;4889615;29;1202;-45
2024/02/11 10:53:32;;;;;;;;;;;;;;;16.13;48.82;100043.25;4898607;29;1007;-54
2024/02/11 10:55:58;;;;;;;;;;;;;;;15.90;49.14;100041.47;4915283;29;1892;-47
2024/02/11 10:58:24;;;;;;;;;;;;;;;15.70;49.64;100037.78;4898252;29;1086;-52
2024/02/11 11:00:51;;;;;;;;;;;;;;;15.48;50.05;100028.06;4907891;29;1083;-50
2024/02/11 11:03:16;;;;;;;;;;;;;;;15.45;50.37;100025.66;4896202;29;1058;-50
2024/02/11 11:05:42;;;;;;;;;;;;;;;15.40;50.16;100021.56;4903662;29;1150;-56
2024/02/11 11:08:07;;;;;;;;;;;;;;;16.12;48.99;100015.84;4894578;29;1203;-55
2024/02/11 11:10:36;;;;;;;;;;;;;;;17.32;46.04;100017.38;4907526;29;1079;-56
2024/02/11 11:13:02;;;;;;;;;;;;;;;16.65;47.48;100029.19;4900132;29;1134;-55
2024/02/11 11:15:31;;;;;;;;;;;;;;;16.16;48.75;100027.06;4898328;29;1974;-53
2024/02/11 11:17:58;;;;;;;;;;;;;;;15.86;49.36;100013.50;4896093;29;1048;-56
2024/02/11 11:20:24;;;;;;;;;;;;;;;15.72;50.00;100011.97;4882208;29;979;-57
2024/02/11 11:22:52;;;;;;;;;;;;;;;15.63;50.04;99999.47;4899336;29;1131;-56
2024/02/11 11:25:20;;;;;;;;;;;;;;;15.49;50.07;99993.47;4900792;29;1070;-56
2024/02/11 11:27:46;;;;;;;;;;;;;;;15.37;50.20;99990.00;4896438;29;1130;-55
2024/02/11 11:30:11;;;;;;;;;;;;;;;16.48;48.42;99996.13;4882203;29;1125;-50
2024/02/11 11:32:45;;;;;;;;;;;;;;;17.32;46.09;99983.66;4894435;29;1159;-51
2024/02/11 11:35:12;;;;;;;;;;;;;;;16.39;48.17;99981.81;4893363;29;1218;-51
2024/02/11 11:37:37;;;;;;;;;;;;;;;15.95;49.01;99982.72;4900024;29;1980;-46
2024/02/11 11:40:03;;;;;;;;;;;;;;;15.81;49.56;99983.88;4900056;29;1275;-51
2024/02/11 11:42:29;;;;;;;;;;;;;;;15.69;49.61;99972.47;4881666;29;1161;-48
2024/02/11 11:45:07;;;;;;;;;;;;;;;15.57;49.93;99978.75;4893923;29;1147;-49
2024/02/11 11:47:34;;;;;;;;;;;;;;;15.38;50.62;99975.78;4900168;29;1144;-48
2024/02/11 11:49:59;;;;;;;;;;;;;;;16.18;49.23;99974.72;4900009;29;1306;-48
2024/02/11 11:52:26;;;;;;;;;;;;;;;17.28;46.15;99978.75;4903120;29;1149;-45
2024/02/11 11:54:51;;;;;;;;;;;;;;;16.39;47.99;99977.34;4903573;29;1061;-49
2024/02/11 11:57:18;;;;;;;;;;;;;;;16.00;49.08;99982.38;4903735;29;1977;-47
2024/02/11 11:59:43;;;;;;;;;;;;;;;15.78;49.79;99973.53;4889596;29;1058;-50
2024/02/11 12:02:09;;;;;;;;;;;;;;;15.66;49.98;99956.81;4893731;29;1111;-45
2024/02/11 12:04:36;;;;;;;;;;;;;;;15.53;50.24;99955.13;4890894;29;1186;-49
2024/02/11 12:07:04;;;;;;;;;;;;;;;15.36;50.79;99964.47;4904063;29;1127;-45
2024/02/11 12:09:30;;;;;;;;;;;;;;;16.61;47.96;99941.00;4901950;29;1289;-46
2024/02/11 12:11:56;;;;;;;;;;;;;;;17.27;46.04;99929.25;4903650;29;1284;-47
2024/02/11 12:14:21;;;;;;;;;;;;;;;16.39;48.39;99923.41;4903068;29;1328;-47
2024/02/11 12:16:48;;;;;;;;;;;;;;;16.00;48.99;99943.44;4900730;29;1902;-47
2024/02/11 12:19:13;;;;;;;;;;;;;;;15.83;49.44;99955.41;4903053;29;1133;-45
2024/02/11 12:21:39;;;;;;;;;;;;;;;15.66;49.76;99952.31;4903569;29;1157;-46
2024/02/11 12:24:08;;;;;;;;;;;;;;;15.57;50.14;99942.47;4903234;29;1128;-46
2024/02/11 12:26:34;;;;;;;;;;;;;;;15.48;50.26;99938.75;4903568;29;1022;-45
2024/02/11 12:28:59;;;;;;;;;;;;;;;16.11;49.57;99931.94;4902911;29;1399;-52
2024/02/11 12:31:25;;;;;;;;;;;;;;;17.33;46.26;99932.16;4903439;29;1312;-47
2024/02/11 12:33:51;;;;;;;;;;;;;;;16.61;47.43;99929.53;4903204;29;1371;-50
2024/02/11 12:36:23;;;;;;;;;;;;;;;16.08;48.74;99936.66;4903164;29;1982;-47
2024/02/11 12:38:50;;;;;;;;;;;;;;;15.87;49.46;99935.63;4903075;29;1141;-46
2024/02/11 12:41:16;;;;;;;;;;;;;;;15.70;49.81;99933.53;4899971;29;972;-49
2024/02/11 12:43:42;;;;;;;;;;;;;;;15.61;50.27;99929.81;4903694;29;1046;-47